createdAt,value
2017-06-17T00:02:24.088Z,44.40
2017-06-17T00:04:52.617Z,44.20
2017-06-17T00:07:21.568Z,44.30
2017-06-17T00:09:49.879Z,44.20
2017-06-17T00:12:18.149Z,44.20
2017-06-17T00:14:46.494Z,44.80
2017-06-17T00:17:15.622Z,44.70
2017-06-17T00:19:43.920Z,44.70
2017-06-17T00:22:12.197Z,44.70
2017-06-17T00:24:40.592Z,44.70
2017-06-17T00:27:09.042Z,44.90
2017-06-17T00:29:37.617Z,45.30
2017-06-17T00:32:06.296Z,45.20
2017-06-17T00:34:34.881Z,45.10
2017-06-17T00:37:03.656Z,45.30
2017-06-17T00:39:31.961Z,45.50
2017-06-17T00:42:00.219Z,45.60
2017-06-17T00:44:28.467Z,45.50
2017-06-17T00:46:57.474Z,45.40
2017-06-17T00:49:25.766Z,45.40
2017-06-17T00:51:54.027Z,45.50
2017-06-17T00:54:22.773Z,45.70
2017-06-17T00:56:51.579Z,45.60
2017-06-17T00:59:19.956Z,45.80
2017-06-17T01:01:48.181Z,45.90
2017-06-17T01:04:16.437Z,45.60
2017-06-17T01:06:44.681Z,46.10
2017-06-17T01:09:13.685Z,45.80
2017-06-17T01:11:42.065Z,45.80
2017-06-17T01:14:10.518Z,46.10
2017-06-17T01:16:38.974Z,46.30
2017-06-17T01:19:08.229Z,46.40
2017-06-17T01:21:36.528Z,46.40
2017-06-17T01:24:04.944Z,46.50
2017-06-17T01:26:33.628Z,46.80
2017-06-17T01:29:02.006Z,46.90
2017-06-17T01:31:31.234Z,46.80
2017-06-17T01:33:59.516Z,46.80
2017-06-17T01:36:29.058Z,46.80
2017-06-17T01:38:57.727Z,46.50
2017-06-17T01:41:27.424Z,46.50
2017-06-17T01:43:56.633Z,46.80
2017-06-17T01:46:24.965Z,46.80
2017-06-17T01:48:53.278Z,46.80
2017-06-17T01:51:22.460Z,47.10
2017-06-17T01:53:51.774Z,47.20
2017-06-17T01:56:20.026Z,47.20
2017-06-17T01:58:49.154Z,47.10
2017-06-17T02:01:17.508Z,47.10
2017-06-17T02:03:45.809Z,47.30
2017-06-17T02:06:14.053Z,47.50
2017-06-17T02:08:43.068Z,47.70
2017-06-17T02:11:11.377Z,47.60
2017-06-17T02:13:39.640Z,47.60
2017-06-17T02:16:07.877Z,47.50
2017-06-17T02:18:36.136Z,47.60
2017-06-17T02:21:10.739Z,47.50
2017-06-17T02:23:39.073Z,47.50
2017-06-17T02:26:07.325Z,47.80
2017-06-17T02:28:35.557Z,47.60
2017-06-17T02:31:03.862Z,47.60
2017-06-17T02:33:32.861Z,47.80
2017-06-17T02:36:01.862Z,47.20
2017-06-17T02:38:30.113Z,47.20
2017-06-17T02:40:58.356Z,47.30
2017-06-17T02:43:26.637Z,47.70
2017-06-17T02:45:54.990Z,47.60
2017-06-17T02:48:23.249Z,48.10
2017-06-17T02:50:51.502Z,47.80
2017-06-17T02:53:20.502Z,48.50
2017-06-17T02:55:49.521Z,48.20
2017-06-17T02:58:17.802Z,48.10
2017-06-17T03:00:46.046Z,48.00
2017-06-17T03:03:14.309Z,48.20
2017-06-17T03:05:42.536Z,48.40
2017-06-17T03:08:10.922Z,48.40
2017-06-17T03:10:39.165Z,48.20
2017-06-17T03:13:07.484Z,48.50
2017-06-17T03:15:35.736Z,48.40
2017-06-17T03:18:04.016Z,48.40
2017-06-17T03:20:32.349Z,48.70
2017-06-17T03:23:01.356Z,48.40
2017-06-17T03:25:29.909Z,48.30
2017-06-17T03:27:58.237Z,48.60
2017-06-17T03:30:26.478Z,48.20
2017-06-17T03:32:55.611Z,48.20
2017-06-17T03:35:23.849Z,48.20
2017-06-17T03:37:52.086Z,48.80
2017-06-17T03:40:20.341Z,48.80
2017-06-17T03:42:48.623Z,48.50
2017-06-17T03:45:16.904Z,48.40
2017-06-17T03:47:45.237Z,49.00
2017-06-17T03:50:14.224Z,49.40
2017-06-17T03:52:42.508Z,49.40
2017-06-17T03:55:10.734Z,49.20
2017-06-17T03:57:38.996Z,48.70
2017-06-17T04:00:07.358Z,49.10
2017-06-17T04:02:35.594Z,49.40
2017-06-17T04:05:04.611Z,48.80
2017-06-17T04:07:32.929Z,48.80
2017-06-17T04:10:01.274Z,48.50
2017-06-17T04:12:29.549Z,48.00
2017-06-17T04:14:57.884Z,48.40
2017-06-17T04:17:26.108Z,48.70
2017-06-17T04:19:54.345Z,48.60
2017-06-17T04:22:23.369Z,49.70
2017-06-17T04:24:51.851Z,49.70
2017-06-17T04:27:20.092Z,49.90
2017-06-17T04:29:49.108Z,50.30
2017-06-17T04:32:17.373Z,50.30
2017-06-17T04:34:45.702Z,50.80
2017-06-17T04:37:14.052Z,50.90
2017-06-17T04:39:42.322Z,50.60
2017-06-17T04:42:10.597Z,50.50
2017-06-17T04:44:38.841Z,50.50
2017-06-17T04:47:07.897Z,50.30
2017-06-17T04:49:36.148Z,50.30
2017-06-17T04:52:04.381Z,50.40
2017-06-17T04:54:33.669Z,49.70
2017-06-17T04:57:02.714Z,50.00
2017-06-17T04:59:31.030Z,49.70
2017-06-17T05:01:59.321Z,49.00
2017-06-17T05:04:28.360Z,47.50
2017-06-17T05:06:56.733Z,47.50
2017-06-17T05:09:24.959Z,47.40
2017-06-17T05:11:53.194Z,46.00
2017-06-17T05:14:21.441Z,44.90
2017-06-17T05:16:49.836Z,44.00
2017-06-17T05:19:18.094Z,43.00
2017-06-17T05:21:46.327Z,42.60
2017-06-17T05:24:14.558Z,42.10
2017-06-17T05:26:42.862Z,42.00
2017-06-17T05:29:11.139Z,42.30
2017-06-17T05:31:40.169Z,41.50
2017-06-17T05:34:09.202Z,42.30
2017-06-17T05:36:37.552Z,42.30
2017-06-17T05:39:05.892Z,41.30
2017-06-17T05:41:34.120Z,41.30
2017-06-17T05:44:02.393Z,41.70
2017-06-17T05:46:30.626Z,41.70
2017-06-17T05:48:58.958Z,42.60
2017-06-17T05:51:27.263Z,41.70
2017-06-17T05:53:55.495Z,41.30
2017-06-17T05:56:23.754Z,41.40
2017-06-17T05:58:51.995Z,41.80
2017-06-17T06:01:20.233Z,41.00
2017-06-17T06:03:48.485Z,39.80
2017-06-17T06:06:16.724Z,39.70
2017-06-17T06:08:45.462Z,38.20
2017-06-17T06:11:14.543Z,38.00
2017-06-17T06:13:42.770Z,37.90
2017-06-17T06:16:11.051Z,37.40
2017-06-17T06:18:39.349Z,37.00
2017-06-17T06:21:08.481Z,36.90
2017-06-17T06:23:36.720Z,36.80
2017-06-17T06:26:05.767Z,36.70
2017-06-17T06:28:34.013Z,36.70
2017-06-17T06:31:02.253Z,37.40
2017-06-17T06:33:31.413Z,38.80
2017-06-17T06:35:59.678Z,38.90
2017-06-17T06:38:27.925Z,39.70
2017-06-17T06:40:56.176Z,39.10
2017-06-17T06:43:24.417Z,39.40
2017-06-17T06:45:52.686Z,39.20
2017-06-17T06:48:20.917Z,39.60
2017-06-17T06:50:49.226Z,40.30
2017-06-17T06:53:17.521Z,40.00
2017-06-17T06:55:45.757Z,39.70
2017-06-17T06:58:14.058Z,39.50
2017-06-17T07:00:42.286Z,40.30
2017-06-17T07:03:11.301Z,40.40
2017-06-17T07:05:39.547Z,40.30
2017-06-17T07:08:08.584Z,41.50
2017-06-17T07:10:36.845Z,41.90
2017-06-17T07:13:05.153Z,41.80
2017-06-17T07:15:33.421Z,42.60
2017-06-17T07:18:01.697Z,41.70
2017-06-17T07:20:29.970Z,41.90
2017-06-17T07:22:58.250Z,42.00
2017-06-17T07:25:26.489Z,41.60
2017-06-17T07:27:54.732Z,41.20
2017-06-17T07:30:22.970Z,41.40
2017-06-17T07:32:51.229Z,41.40
2017-06-17T07:35:19.517Z,41.80
2017-06-17T07:37:47.846Z,41.10
2017-06-17T07:40:16.172Z,41.80
2017-06-17T07:42:44.465Z,40.80
2017-06-17T07:45:12.741Z,41.40
2017-06-17T07:47:41.008Z,41.50
2017-06-17T07:50:09.241Z,40.60
2017-06-17T07:52:38.246Z,42.40
2017-06-17T07:55:06.576Z,42.40
2017-06-17T07:57:34.818Z,42.50
2017-06-17T08:00:03.152Z,41.10
2017-06-17T08:02:31.473Z,42.00
2017-06-17T08:04:59.759Z,42.00
2017-06-17T08:07:28.029Z,42.20
2017-06-17T08:09:56.273Z,43.10
2017-06-17T08:12:24.541Z,43.20
2017-06-17T08:14:53.665Z,43.20
2017-06-17T08:17:21.897Z,43.10
2017-06-17T08:19:50.915Z,44.40
2017-06-17T08:22:19.155Z,44.40
2017-06-17T08:24:47.503Z,45.40
2017-06-17T08:27:15.766Z,44.80
2017-06-17T08:29:43.997Z,45.40
2017-06-17T08:32:13.012Z,46.00
2017-06-17T08:34:41.244Z,46.00
2017-06-17T08:37:09.592Z,46.20
2017-06-17T08:39:37.836Z,46.40
2017-06-17T08:42:06.070Z,46.70
2017-06-17T08:44:34.392Z,46.10
2017-06-17T08:47:02.640Z,45.50
2017-06-17T08:49:30.906Z,45.20
2017-06-17T08:51:59.154Z,45.20
2017-06-17T08:54:27.400Z,45.60
2017-06-17T08:56:55.788Z,45.80
2017-06-17T08:59:24.041Z,46.30
2017-06-17T09:01:52.324Z,46.10
2017-06-17T09:04:20.564Z,45.10
2017-06-17T09:06:48.941Z,45.70
2017-06-17T09:09:17.957Z,47.20
2017-06-17T09:11:46.208Z,46.40
2017-06-17T09:14:14.476Z,47.10
2017-06-17T09:16:42.694Z,44.80
2017-06-17T09:19:10.964Z,44.70
2017-06-17T09:21:39.360Z,45.30
2017-06-17T09:24:07.598Z,45.70
2017-06-17T09:26:36.730Z,45.80
2017-06-17T09:29:04.982Z,45.80
2017-06-17T09:31:34.103Z,46.10
2017-06-17T09:34:02.354Z,46.10
2017-06-17T09:36:30.649Z,45.10
2017-06-17T09:38:58.877Z,46.00
2017-06-17T09:41:27.886Z,45.00
2017-06-17T09:43:56.152Z,45.00
2017-06-17T09:46:25.155Z,45.50
2017-06-17T09:48:54.233Z,45.50
2017-06-17T09:51:23.261Z,45.80
2017-06-17T09:53:51.514Z,45.70
2017-06-17T09:56:20.555Z,46.60
2017-06-17T09:58:48.923Z,45.90
2017-06-17T10:01:17.173Z,46.10
2017-06-17T10:03:45.434Z,46.70
2017-06-17T10:06:14.441Z,47.10
2017-06-17T10:08:42.706Z,47.00
2017-06-17T10:11:10.961Z,46.50
2017-06-17T10:13:39.210Z,46.70
2017-06-17T10:16:07.445Z,46.00
2017-06-17T10:18:35.709Z,46.10
2017-06-17T10:21:06.953Z,46.40
2017-06-17T10:23:35.955Z,46.90
2017-06-17T10:26:04.194Z,46.80
2017-06-17T10:28:32.461Z,46.00
2017-06-17T10:31:00.709Z,45.30
2017-06-17T10:33:28.982Z,46.00
2017-06-17T10:35:57.209Z,45.10
2017-06-17T10:38:26.204Z,45.60
2017-06-17T10:40:55.240Z,45.30
2017-06-17T10:43:23.621Z,45.30
2017-06-17T10:45:51.913Z,45.10
2017-06-17T10:48:20.575Z,46.20
2017-06-17T10:50:48.815Z,46.60
2017-06-17T10:53:17.068Z,46.80
2017-06-17T10:55:45.303Z,46.80
2017-06-17T10:58:13.854Z,47.10
2017-06-17T11:00:42.114Z,46.60
2017-06-17T11:03:10.333Z,46.50
2017-06-17T11:05:38.588Z,46.60
2017-06-17T11:08:06.819Z,46.90
2017-06-17T11:10:35.168Z,47.50
2017-06-17T11:13:03.393Z,48.40
2017-06-17T11:15:32.453Z,48.00
2017-06-17T11:18:00.705Z,47.90
2017-06-17T11:20:28.937Z,47.90
2017-06-17T11:22:57.992Z,48.80
2017-06-17T11:25:26.418Z,48.80
2017-06-17T11:27:54.674Z,49.10
2017-06-17T11:30:22.921Z,49.50
2017-06-17T11:32:51.177Z,48.60
2017-06-17T11:35:19.553Z,48.50
2017-06-17T11:37:47.789Z,47.90
2017-06-17T11:40:16.792Z,47.90
2017-06-17T11:42:45.809Z,47.70
2017-06-17T11:45:14.039Z,47.70
2017-06-17T11:47:42.296Z,48.10
2017-06-17T11:50:10.537Z,48.50
2017-06-17T11:52:38.792Z,48.80
2017-06-17T11:55:07.060Z,48.80
2017-06-17T11:57:35.386Z,48.80
2017-06-17T12:00:03.643Z,48.80
2017-06-17T12:02:31.940Z,49.70
2017-06-17T12:05:00.362Z,48.90
2017-06-17T12:07:28.681Z,48.20
2017-06-17T12:09:56.949Z,48.20
2017-06-17T12:12:25.191Z,48.70
2017-06-17T12:14:54.194Z,49.30
2017-06-17T12:17:22.449Z,49.20
2017-06-17T12:19:51.445Z,49.70
2017-06-17T12:22:20.523Z,49.60
2017-06-17T12:24:48.781Z,49.60
2017-06-17T12:27:17.049Z,49.60
2017-06-17T12:29:45.289Z,49.10
2017-06-17T12:32:13.540Z,49.40
2017-06-17T12:34:42.552Z,49.60
2017-06-17T12:37:10.863Z,49.50
2017-06-17T12:39:39.902Z,50.30
2017-06-17T12:42:09.800Z,50.20
2017-06-17T12:44:38.692Z,49.60
2017-06-17T12:47:07.891Z,49.50
2017-06-17T12:49:37.536Z,49.20
2017-06-17T12:52:06.599Z,49.40
2017-06-17T12:54:35.690Z,49.50
2017-06-17T12:57:04.506Z,49.00
2017-06-17T12:59:32.893Z,48.80
2017-06-17T13:02:01.189Z,49.20
2017-06-17T13:04:29.417Z,49.30
2017-06-17T13:06:58.444Z,50.00
2017-06-17T13:09:27.452Z,49.00
2017-06-17T13:11:55.741Z,49.00
2017-06-17T13:14:24.100Z,49.20
2017-06-17T13:16:52.333Z,49.10
2017-06-17T13:19:20.662Z,49.20
2017-06-17T13:21:48.910Z,48.60
2017-06-17T13:24:17.149Z,49.90
2017-06-17T13:26:45.478Z,49.60
2017-06-17T13:29:13.769Z,49.50
2017-06-17T13:31:42.040Z,49.20
2017-06-17T13:34:10.299Z,49.50
2017-06-17T13:36:38.583Z,49.80
2017-06-17T13:39:07.001Z,49.90
2017-06-17T13:41:35.312Z,50.20
2017-06-17T13:44:03.583Z,49.40
2017-06-17T13:46:31.817Z,49.20
2017-06-17T13:49:00.159Z,50.50
2017-06-17T13:51:28.445Z,50.00
2017-06-17T13:53:56.687Z,50.30
2017-06-17T13:56:24.959Z,49.20
2017-06-17T13:58:53.201Z,49.40
2017-06-17T14:01:21.549Z,49.90
2017-06-17T14:03:49.801Z,50.10
2017-06-17T14:06:18.045Z,50.20
2017-06-17T14:08:47.092Z,51.20
2017-06-17T14:11:15.333Z,51.10
2017-06-17T14:13:43.571Z,51.20
2017-06-17T14:16:11.905Z,51.40
2017-06-17T14:18:40.197Z,51.40
2017-06-17T14:21:14.285Z,51.90
2017-06-17T14:23:42.528Z,50.70
2017-06-17T14:26:11.582Z,51.40
2017-06-17T14:28:39.936Z,51.40
2017-06-17T14:31:08.189Z,51.30
2017-06-17T14:33:36.452Z,50.50
2017-06-17T14:36:05.457Z,51.80
2017-06-17T14:38:33.781Z,51.80
2017-06-17T14:41:02.033Z,51.30
2017-06-17T14:43:30.428Z,51.40
2017-06-17T14:45:58.683Z,51.30
2017-06-17T14:48:26.924Z,51.30
2017-06-17T14:50:55.966Z,50.50
2017-06-17T14:53:24.406Z,50.50
2017-06-17T14:55:52.635Z,50.70
2017-06-17T14:58:20.893Z,50.60
2017-06-17T15:00:49.207Z,51.00
2017-06-17T15:03:17.462Z,50.40
2017-06-17T15:05:45.709Z,50.40
2017-06-17T15:08:13.968Z,50.40
2017-06-17T15:10:42.233Z,50.50
2017-06-17T15:13:10.990Z,51.20
2017-06-17T15:15:39.216Z,51.00
2017-06-17T15:18:07.475Z,50.60
2017-06-17T15:20:35.751Z,51.90
2017-06-17T15:23:04.001Z,50.90
2017-06-17T15:25:33.011Z,51.70
2017-06-17T15:28:02.100Z,51.60
2017-06-17T15:30:31.102Z,51.50
2017-06-17T15:32:59.369Z,51.50
2017-06-17T15:35:28.373Z,51.80
2017-06-17T15:37:56.637Z,51.80
2017-06-17T15:40:24.873Z,51.70
2017-06-17T15:42:53.225Z,52.10
2017-06-17T15:45:21.477Z,52.40
2017-06-17T15:47:49.745Z,52.20
2017-06-17T15:50:18.026Z,52.50
2017-06-17T15:52:46.277Z,52.20
2017-06-17T15:55:15.335Z,52.50
2017-06-17T15:57:43.589Z,52.50
2017-06-17T16:00:11.857Z,52.30
2017-06-17T16:02:40.126Z,52.10
2017-06-17T16:05:08.366Z,52.30
2017-06-17T16:07:36.611Z,52.30
2017-06-17T16:10:04.868Z,51.90
2017-06-17T16:12:33.126Z,51.90
2017-06-17T16:15:01.381Z,52.10
2017-06-17T16:17:29.692Z,52.10
2017-06-17T16:19:57.960Z,52.30
2017-06-17T16:22:26.189Z,52.10
2017-06-17T16:24:54.444Z,52.00
2017-06-17T16:27:22.802Z,52.00
2017-06-17T16:29:51.037Z,52.40
2017-06-17T16:32:19.298Z,52.40
2017-06-17T16:34:47.529Z,52.40
2017-06-17T16:37:15.811Z,52.50
2017-06-17T16:39:44.056Z,52.50
2017-06-17T16:42:12.444Z,52.90
2017-06-17T16:44:40.722Z,52.50
2017-06-17T16:47:08.973Z,52.50
2017-06-17T16:49:37.882Z,52.70
2017-06-17T16:52:06.119Z,52.70
2017-06-17T16:54:35.186Z,52.60
2017-06-17T16:57:03.545Z,52.60
2017-06-17T16:59:31.845Z,53.00
2017-06-17T17:02:00.107Z,54.30
2017-06-17T17:04:28.426Z,54.20
2017-06-17T17:06:57.944Z,53.60
2017-06-17T17:09:26.191Z,53.60
2017-06-17T17:11:55.339Z,53.40
2017-06-17T17:14:23.614Z,53.30
2017-06-17T17:16:51.989Z,53.50
2017-06-17T17:19:20.239Z,53.30
2017-06-17T17:21:48.484Z,53.30
2017-06-17T17:24:16.741Z,53.50
2017-06-17T17:26:45.377Z,53.40
2017-06-17T17:29:13.637Z,53.80
2017-06-17T17:31:42.657Z,53.90
2017-06-17T17:34:10.930Z,53.90
2017-06-17T17:36:39.185Z,54.10
2017-06-17T17:39:07.449Z,54.30
2017-06-17T17:41:36.493Z,54.70
2017-06-17T17:44:04.782Z,54.00
2017-06-17T17:46:33.049Z,54.00
2017-06-17T17:49:01.309Z,54.10
2017-06-17T17:51:29.581Z,54.20
2017-06-17T17:53:57.894Z,54.20
2017-06-17T17:56:26.255Z,54.10
2017-06-17T17:58:55.399Z,54.30
2017-06-17T18:01:23.650Z,54.60
2017-06-17T18:03:51.926Z,54.50
2017-06-17T18:06:20.181Z,55.20
2017-06-17T18:08:48.459Z,55.10
2017-06-17T18:11:16.750Z,55.20
2017-06-17T18:13:45.010Z,55.50
2017-06-17T18:16:13.262Z,55.70
2017-06-17T18:18:41.589Z,55.80
2017-06-17T18:21:09.878Z,55.90
2017-06-17T18:23:38.893Z,56.50
2017-06-17T18:26:07.355Z,56.20
2017-06-17T18:28:35.593Z,56.40
2017-06-17T18:31:03.953Z,56.70
2017-06-17T18:33:32.229Z,56.70
2017-06-17T18:36:00.472Z,56.90
2017-06-17T18:38:28.736Z,57.00
2017-06-17T18:40:56.983Z,57.10
2017-06-17T18:43:25.275Z,57.10
2017-06-17T18:45:53.505Z,57.10
2017-06-17T18:48:21.890Z,57.10
2017-06-17T18:50:50.173Z,57.20
2017-06-17T18:53:18.428Z,57.20
2017-06-17T18:55:46.757Z,57.40
2017-06-17T18:58:15.884Z,57.80
2017-06-17T19:00:44.140Z,57.80
2017-06-17T19:03:13.165Z,58.00
2017-06-17T19:05:41.425Z,58.00
2017-06-17T19:08:10.436Z,58.30
2017-06-17T19:10:38.678Z,58.30
2017-06-17T19:13:07.812Z,58.20
2017-06-17T19:15:36.052Z,58.10
2017-06-17T19:18:04.310Z,58.20
2017-06-17T19:20:32.668Z,58.20
2017-06-17T19:23:01.027Z,58.10
2017-06-17T19:25:29.398Z,58.20
2017-06-17T19:27:57.657Z,58.00
2017-06-17T19:30:25.953Z,58.10
2017-06-17T19:32:54.200Z,57.80
2017-06-17T19:35:22.464Z,57.70
2017-06-17T19:37:51.503Z,57.80
2017-06-17T19:40:19.771Z,57.80
2017-06-17T19:42:48.021Z,58.00
2017-06-17T19:45:16.364Z,58.10
2017-06-17T19:47:44.622Z,58.40
2017-06-17T19:50:12.862Z,58.10
2017-06-17T19:52:41.133Z,57.90
2017-06-17T19:55:10.136Z,58.10
2017-06-17T19:57:38.379Z,58.10
2017-06-17T20:00:07.515Z,58.40
2017-06-17T20:02:35.806Z,58.40
2017-06-17T20:05:04.265Z,58.20
2017-06-17T20:07:32.541Z,58.00
2017-06-17T20:10:00.777Z,58.10
2017-06-17T20:12:29.831Z,58.40
2017-06-17T20:14:58.073Z,58.40
2017-06-17T20:17:26.339Z,58.20
2017-06-17T20:19:54.645Z,58.50
2017-06-17T20:22:28.588Z,58.40
2017-06-17T20:24:56.864Z,58.40
2017-06-17T20:27:25.201Z,58.40
2017-06-17T20:29:53.582Z,58.20
2017-06-17T20:32:21.849Z,58.10
2017-06-17T20:34:50.106Z,58.40
2017-06-17T20:37:18.367Z,58.40
2017-06-17T20:39:47.374Z,58.10
2017-06-17T20:42:15.712Z,58.10
2017-06-17T20:44:43.960Z,58.20
2017-06-17T20:47:12.325Z,59.00
2017-06-17T20:49:40.593Z,58.20
2017-06-17T20:52:08.853Z,58.60
2017-06-17T20:54:37.121Z,58.60
2017-06-17T20:57:05.367Z,58.70
2017-06-17T20:59:33.617Z,58.60
2017-06-17T21:02:01.981Z,58.80
2017-06-17T21:04:30.221Z,58.70
2017-06-17T21:06:58.488Z,58.90
2017-06-17T21:09:27.525Z,59.20
2017-06-17T21:11:55.805Z,59.20
2017-06-17T21:14:24.090Z,59.50
2017-06-17T21:16:52.425Z,59.50
2017-06-17T21:19:20.723Z,59.70
2017-06-17T21:21:49.045Z,59.90
2017-06-17T21:24:17.476Z,59.70
2017-06-17T21:26:46.483Z,59.30
2017-06-17T21:29:14.910Z,59.30
2017-06-17T21:31:43.215Z,59.60
2017-06-17T21:34:11.458Z,59.70
2017-06-17T21:36:40.531Z,59.40
2017-06-17T21:39:08.782Z,59.40
2017-06-17T21:41:37.034Z,59.60
2017-06-17T21:44:05.293Z,59.60
2017-06-17T21:46:33.816Z,59.50
2017-06-17T21:49:02.129Z,59.30
2017-06-17T21:51:30.386Z,59.40
2017-06-17T21:53:58.752Z,59.30
2017-06-17T21:56:27.941Z,59.70
2017-06-17T21:58:56.554Z,59.80
2017-06-17T22:01:24.821Z,60.70
2017-06-17T22:03:53.076Z,59.90
2017-06-17T22:06:21.341Z,59.90
2017-06-17T22:08:49.703Z,59.90
2017-06-17T22:11:17.944Z,59.60
2017-06-17T22:13:46.969Z,59.80
2017-06-17T22:16:15.222Z,59.80
2017-06-17T22:18:44.318Z,60.50
2017-06-17T22:21:12.550Z,60.50
2017-06-17T22:23:40.844Z,61.10
2017-06-17T22:26:09.109Z,60.30
2017-06-17T22:28:37.404Z,60.00
2017-06-17T22:31:05.651Z,60.00
2017-06-17T22:33:33.933Z,60.00
2017-06-17T22:36:02.193Z,60.10
2017-06-17T22:38:30.445Z,60.10
2017-06-17T22:40:58.694Z,60.90
2017-06-17T22:43:27.708Z,60.00
2017-06-17T22:45:55.963Z,59.90
2017-06-17T22:48:25.101Z,60.00
2017-06-17T22:50:53.425Z,59.90
2017-06-17T22:53:21.687Z,59.90
2017-06-17T22:55:50.032Z,60.60
2017-06-17T22:58:18.273Z,60.00
2017-06-17T23:00:46.548Z,60.10
2017-06-17T23:03:14.809Z,60.20
2017-06-17T23:05:43.971Z,60.40
2017-06-17T23:08:12.210Z,60.30
2017-06-17T23:10:40.482Z,60.10
2017-06-17T23:13:08.890Z,60.20
2017-06-17T23:15:37.141Z,61.00
2017-06-17T23:18:05.402Z,60.60
2017-06-17T23:20:33.653Z,60.40
2017-06-17T23:23:02.690Z,60.60
2017-06-17T23:25:30.934Z,60.20
2017-06-17T23:28:00.074Z,61.00
2017-06-17T23:30:28.313Z,60.20
2017-06-17T23:32:56.581Z,60.00
2017-06-17T23:35:25.646Z,60.20
2017-06-17T23:37:53.897Z,60.10
2017-06-17T23:40:22.154Z,60.00
2017-06-17T23:42:50.485Z,60.50
2017-06-17T23:45:18.745Z,60.30
2017-06-17T23:47:47.015Z,60.80
2017-06-17T23:50:15.277Z,61.20
2017-06-17T23:52:43.544Z,61.40
2017-06-17T23:55:11.809Z,61.50
2017-06-17T23:57:40.069Z,61.70
